createdAt,value
2022-11-27T00:01:22.687Z,38.93
2022-11-27T00:03:50.379Z,40.97
2022-11-27T00:06:20.659Z,38.63
2022-11-27T00:08:48.460Z,38.07
2022-11-27T00:11:20.753Z,38.63
2022-11-27T00:13:48.638Z,41.57
2022-11-27T00:16:17.263Z,42.90
2022-11-27T00:18:44.505Z,38.77
2022-11-27T00:21:14.215Z,40.57
2022-11-27T00:23:41.639Z,41.10
2022-11-27T00:26:08.893Z,40.23
2022-11-27T00:28:36.585Z,39.10
2022-11-27T00:31:09.235Z,39.40
2022-11-27T00:33:37.483Z,38.53
2022-11-27T00:36:05.852Z,40.53
2022-11-27T00:38:37.386Z,38.63
2022-11-27T00:41:09.585Z,37.93
2022-11-27T00:43:43.956Z,39.00
2022-11-27T00:46:16.510Z,39.27
2022-11-27T00:48:44.573Z,40.43
2022-11-27T00:51:15.391Z,39.70
2022-11-27T00:53:43.578Z,40.07
2022-11-27T00:56:16.181Z,41.73
2022-11-27T00:58:43.386Z,40.17
2022-11-27T01:01:17.647Z,36.50
2022-11-27T01:03:46.001Z,39.07
2022-11-27T01:06:13.862Z,39.20
2022-11-27T01:08:41.248Z,37.57
2022-11-27T01:11:13.671Z,38.60
2022-11-27T01:13:40.678Z,38.20
2022-11-27T01:16:10.514Z,37.70
2022-11-27T01:18:39.729Z,38.13
2022-11-27T01:21:07.091Z,39.73
2022-11-27T01:23:34.619Z,37.13
2022-11-27T01:26:05.762Z,39.73
2022-11-27T01:28:33.520Z,40.70
2022-11-27T01:31:09.123Z,39.27
2022-11-27T01:33:36.274Z,38.00
2022-11-27T01:36:06.452Z,40.20
2022-11-27T01:38:34.111Z,40.27
2022-11-27T01:41:03.890Z,43.20
2022-11-27T01:43:41.916Z,39.33
2022-11-27T01:46:27.094Z,40.23
2022-11-27T01:48:58.580Z,40.20
2022-11-27T01:51:25.651Z,37.43
2022-11-27T01:53:54.155Z,41.33
2022-11-27T01:56:23.840Z,40.10
2022-11-27T01:58:51.752Z,40.13
2022-11-27T02:01:18.905Z,39.63
2022-11-27T02:03:46.034Z,42.00
2022-11-27T02:06:13.852Z,42.37
2022-11-27T02:08:42.243Z,41.27
2022-11-27T02:11:14.791Z,40.33
2022-11-27T02:13:56.737Z,39.30
2022-11-27T02:16:44.200Z,40.43
2022-11-27T02:19:39.026Z,39.87
2022-11-27T02:22:18.255Z,40.10
2022-11-27T02:25:06.958Z,40.33
2022-11-27T02:27:34.551Z,40.57
2022-11-27T02:30:04.401Z,37.70
2022-11-27T02:32:47.360Z,40.43
2022-11-27T02:35:23.204Z,42.40
2022-11-27T02:38:14.728Z,40.30
2022-11-27T02:40:53.716Z,40.30
2022-11-27T02:43:37.749Z,38.77
2022-11-27T02:46:08.025Z,41.27
2022-11-27T02:48:39.591Z,41.63
2022-11-27T02:51:07.639Z,39.40
2022-11-27T02:53:42.640Z,39.13
2022-11-27T02:56:15.228Z,39.17
2022-11-27T02:58:42.349Z,39.10
2022-11-27T03:01:12.428Z,39.97
2022-11-27T03:03:44.548Z,40.30
2022-11-27T03:06:19.019Z,40.40
2022-11-27T03:08:54.899Z,39.03
2022-11-27T03:11:23.041Z,39.77
2022-11-27T03:13:54.224Z,39.33
2022-11-27T03:16:46.021Z,38.70
2022-11-27T03:19:38.977Z,38.27
2022-11-27T03:22:06.095Z,38.07
2022-11-27T03:24:34.837Z,39.53
2022-11-27T03:27:03.623Z,36.73
2022-11-27T03:29:30.309Z,36.53
2022-11-27T03:31:58.018Z,36.77
2022-11-27T03:34:25.330Z,38.50
2022-11-27T03:36:52.383Z,35.77
2022-11-27T03:39:20.427Z,35.97
2022-11-27T03:41:59.665Z,36.83
2022-11-27T03:44:33.983Z,35.57
2022-11-27T03:47:41.493Z,36.43
2022-11-27T03:50:39.129Z,37.03
2022-11-27T03:53:26.118Z,35.00
2022-11-27T03:56:12.059Z,36.83
2022-11-27T03:58:52.254Z,36.63
2022-11-27T04:01:22.688Z,38.23
2022-11-27T04:03:49.874Z,40.10
2022-11-27T04:06:17.336Z,37.87
2022-11-27T04:08:46.855Z,38.23
2022-11-27T04:11:14.749Z,40.57
2022-11-27T04:13:41.753Z,41.40
2022-11-27T04:16:08.761Z,39.37
2022-11-27T04:18:35.879Z,39.53
2022-11-27T04:21:02.749Z,39.53
2022-11-27T04:23:29.782Z,39.50
2022-11-27T04:25:56.589Z,39.27
2022-11-27T04:28:23.589Z,40.23
2022-11-27T04:30:54.845Z,40.73
2022-11-27T04:33:22.952Z,40.83
2022-11-27T04:35:51.281Z,42.87
2022-11-27T04:38:19.765Z,37.60
2022-11-27T04:40:46.578Z,40.97
2022-11-27T04:43:13.599Z,40.07
2022-11-27T04:45:41.245Z,42.30
2022-11-27T04:48:08.287Z,38.70
2022-11-27T04:50:35.084Z,40.53
2022-11-27T04:53:02.143Z,39.23
2022-11-27T04:55:28.987Z,40.43
2022-11-27T04:57:55.951Z,39.13
2022-11-27T05:00:22.762Z,41.77
2022-11-27T05:02:49.855Z,42.53
2022-11-27T05:05:17.262Z,40.53
2022-11-27T05:07:44.384Z,42.37
2022-11-27T05:10:11.617Z,43.93
2022-11-27T05:12:38.864Z,38.63
2022-11-27T05:15:06.332Z,43.57
2022-11-27T05:17:33.397Z,43.20
2022-11-27T05:20:00.168Z,41.93
2022-11-27T05:22:27.242Z,39.30
2022-11-27T05:24:53.956Z,39.50
2022-11-27T05:27:21.008Z,37.03
2022-11-27T05:29:47.774Z,39.90
2022-11-27T05:32:14.841Z,40.03
2022-11-27T05:34:41.844Z,39.23
2022-11-27T05:37:08.919Z,43.07
2022-11-27T05:39:35.690Z,40.37
2022-11-27T05:42:02.741Z,38.53
2022-11-27T05:44:29.549Z,37.63
2022-11-27T05:46:57.295Z,37.57
2022-11-27T05:49:24.183Z,37.27
2022-11-27T05:51:51.890Z,37.60
2022-11-27T05:54:19.562Z,36.63
2022-11-27T05:56:46.941Z,35.97
2022-11-27T05:59:14.209Z,38.67
2022-11-27T06:01:41.288Z,38.17
2022-11-27T06:04:08.143Z,35.93
2022-11-27T06:06:35.123Z,42.63
2022-11-27T06:09:01.877Z,39.83
2022-11-27T06:11:29.058Z,41.40
2022-11-27T06:13:55.794Z,42.47
2022-11-27T06:16:24.310Z,42.27
2022-11-27T06:18:56.049Z,41.90
2022-11-27T06:21:24.218Z,42.13
2022-11-27T06:23:55.412Z,43.60
2022-11-27T06:26:25.860Z,41.00
2022-11-27T06:28:54.228Z,39.03
2022-11-27T06:31:24.157Z,37.60
2022-11-27T06:33:53.808Z,47.20
2022-11-27T06:36:22.109Z,47.80
2022-11-27T06:38:48.855Z,39.63
2022-11-27T06:41:18.752Z,39.97
2022-11-27T06:43:45.936Z,41.13
2022-11-27T06:46:16.100Z,40.83
2022-11-27T06:48:45.207Z,41.20
2022-11-27T06:51:15.662Z,38.97
2022-11-27T06:53:43.523Z,42.13
2022-11-27T06:56:16.220Z,39.57
2022-11-27T06:58:43.206Z,39.50
2022-11-27T07:01:16.396Z,43.37
2022-11-27T07:03:43.989Z,41.47
2022-11-27T07:06:13.563Z,39.40
2022-11-27T07:08:40.288Z,39.30
2022-11-27T07:11:10.786Z,38.40
2022-11-27T07:13:37.637Z,37.67
2022-11-27T07:16:10.088Z,37.53
2022-11-27T07:18:48.762Z,33.70
2022-11-27T07:21:15.880Z,40.83
2022-11-27T07:23:42.912Z,39.17
2022-11-27T07:26:13.764Z,34.47
2022-11-27T07:28:43.710Z,31.63
2022-11-27T07:31:13.493Z,33.27
2022-11-27T07:33:40.271Z,32.50
2022-11-27T07:36:10.827Z,33.20
2022-11-27T07:38:37.621Z,33.97
2022-11-27T07:41:05.605Z,34.17
2022-11-27T07:43:33.838Z,35.70
2022-11-27T07:46:08.759Z,37.87
2022-11-27T07:48:35.543Z,36.40
2022-11-27T07:51:06.018Z,35.20
2022-11-27T07:53:36.623Z,39.50
2022-11-27T07:56:04.974Z,40.57
2022-11-27T07:58:31.898Z,38.67
2022-11-27T08:00:59.035Z,38.60
2022-11-27T08:03:25.956Z,41.23
2022-11-27T08:05:53.010Z,39.87
2022-11-27T08:08:19.746Z,39.83
2022-11-27T08:10:46.755Z,38.03
2022-11-27T08:13:13.447Z,38.93
2022-11-27T08:15:40.514Z,36.83
2022-11-27T08:18:07.203Z,33.80
2022-11-27T08:20:34.277Z,32.27
2022-11-27T08:23:03.074Z,29.63
2022-11-27T08:25:31.301Z,29.10
2022-11-27T08:27:58.262Z,30.37
2022-11-27T08:30:25.376Z,31.53
2022-11-27T08:32:52.278Z,30.47
2022-11-27T08:35:19.280Z,28.97
2022-11-27T08:37:46.407Z,31.30
2022-11-27T08:40:13.548Z,33.87
2022-11-27T08:42:40.320Z,30.47
2022-11-27T08:45:07.941Z,32.50
2022-11-27T08:47:34.832Z,31.07
2022-11-27T08:50:01.966Z,32.33
2022-11-27T08:52:28.769Z,29.33
2022-11-27T08:54:57.731Z,29.83
2022-11-27T08:57:25.039Z,28.57
2022-11-27T08:59:52.120Z,28.20
2022-11-27T09:02:18.909Z,31.13
2022-11-27T09:04:46.046Z,28.30
2022-11-27T09:07:15.351Z,38.60
2022-11-27T09:09:42.714Z,35.67
2022-11-27T09:12:09.808Z,39.50
2022-11-27T09:14:36.964Z,33.50
2022-11-27T09:17:04.025Z,30.27
2022-11-27T09:19:31.053Z,28.07
2022-11-27T09:21:57.826Z,27.97
2022-11-27T09:24:24.939Z,33.27
2022-11-27T09:26:51.898Z,27.63
2022-11-27T09:29:18.951Z,27.67
2022-11-27T09:31:45.772Z,26.70
2022-11-27T09:34:13.066Z,24.63
2022-11-27T09:36:39.769Z,23.77
2022-11-27T09:39:06.782Z,25.10
2022-11-27T09:41:45.371Z,24.40
2022-11-27T09:44:27.099Z,26.00
2022-11-27T09:46:56.486Z,24.27
2022-11-27T09:49:33.518Z,26.07
2022-11-27T09:52:11.630Z,23.60
2022-11-27T09:54:52.246Z,27.03
2022-11-27T09:57:26.957Z,23.70
2022-11-27T09:59:55.075Z,25.30
2022-11-27T10:02:28.757Z,24.83
2022-11-27T10:05:13.424Z,24.00
2022-11-27T10:08:07.084Z,25.03
2022-11-27T10:11:33.497Z,24.53
2022-11-27T10:14:22.910Z,23.47
2022-11-27T10:17:09.152Z,23.27
2022-11-27T10:19:38.973Z,23.97
2022-11-27T10:22:28.606Z,26.33
2022-11-27T10:25:14.050Z,24.07
2022-11-27T10:27:51.786Z,24.47
2022-11-27T10:30:21.255Z,24.30
2022-11-27T10:32:55.789Z,24.50
2022-11-27T10:35:25.515Z,23.93
2022-11-27T10:38:05.303Z,27.60
2022-11-27T10:40:41.928Z,26.83
2022-11-27T10:43:24.553Z,32.57
2022-11-27T10:45:56.331Z,26.87
2022-11-27T10:48:24.165Z,27.33
2022-11-27T10:50:51.522Z,26.90
2022-11-27T10:53:25.016Z,30.40
2022-11-27T10:56:15.157Z,25.30
2022-11-27T10:59:13.537Z,43.57
2022-11-27T11:01:47.286Z,27.93
2022-11-27T11:04:36.958Z,26.57
2022-11-27T11:07:23.855Z,26.13
2022-11-27T11:09:51.946Z,24.70
2022-11-27T11:12:21.563Z,28.17
2022-11-27T11:14:59.783Z,30.73
2022-11-27T11:17:30.769Z,29.27
2022-11-27T11:19:57.821Z,24.67
2022-11-27T11:22:24.847Z,26.03
2022-11-27T11:24:53.583Z,29.33
2022-11-27T11:27:26.469Z,28.37
2022-11-27T11:30:02.783Z,25.53
2022-11-27T11:32:34.804Z,26.53
2022-11-27T11:35:30.277Z,29.00
2022-11-27T11:37:58.889Z,40.00
2022-11-27T11:40:32.619Z,28.13
2022-11-27T11:43:02.628Z,27.67
2022-11-27T11:45:34.735Z,26.77
2022-11-27T11:48:23.975Z,34.47
2022-11-27T11:50:59.940Z,24.17
2022-11-27T11:53:38.424Z,26.40
2022-11-27T11:56:20.119Z,25.27
2022-11-27T11:59:15.002Z,25.97
2022-11-27T12:02:23.000Z,27.07
2022-11-27T12:05:03.924Z,24.70
2022-11-27T12:07:51.963Z,23.97
2022-11-27T12:10:40.899Z,27.30
2022-11-27T12:13:14.694Z,25.80
2022-11-27T12:15:41.342Z,26.43
2022-11-27T12:18:18.982Z,26.13
2022-11-27T12:21:04.773Z,27.53
2022-11-27T12:24:00.495Z,28.20
2022-11-27T12:26:41.630Z,29.40
2022-11-27T12:29:36.197Z,29.93
2022-11-27T12:32:33.638Z,29.13
2022-11-27T12:35:33.191Z,27.87
2022-11-27T12:38:28.692Z,28.37
2022-11-27T12:41:19.346Z,30.00
2022-11-27T12:44:00.379Z,31.90
2022-11-27T12:46:55.969Z,35.70
2022-11-27T12:49:29.873Z,31.27
2022-11-27T12:52:06.219Z,35.47
2022-11-27T12:54:37.907Z,37.40
2022-11-27T12:57:11.636Z,29.57
2022-11-27T12:59:46.290Z,30.13
2022-11-27T13:02:28.471Z,29.43
2022-11-27T13:05:50.291Z,29.93
2022-11-27T13:08:42.821Z,30.33
2022-11-27T13:11:13.918Z,32.13
2022-11-27T13:13:46.816Z,32.77
2022-11-27T13:16:19.861Z,31.87
2022-11-27T13:19:00.272Z,31.90
2022-11-27T13:21:30.938Z,34.47
2022-11-27T13:24:01.272Z,35.97
2022-11-27T13:26:37.143Z,34.70
2022-11-27T13:29:15.299Z,33.80
2022-11-27T13:31:44.422Z,33.10
2022-11-27T13:34:24.241Z,33.70
2022-11-27T13:37:04.872Z,33.37
2022-11-27T13:39:38.900Z,33.47
2022-11-27T13:42:16.984Z,30.73
2022-11-27T13:44:53.686Z,30.47
2022-11-27T13:47:23.626Z,29.70
2022-11-27T13:50:00.371Z,30.43
2022-11-27T13:52:27.271Z,30.43
2022-11-27T13:55:02.895Z,33.00
2022-11-27T13:57:31.284Z,32.67
2022-11-27T14:00:00.933Z,33.77
2022-11-27T14:02:47.247Z,30.07
2022-11-27T14:05:21.276Z,29.27
2022-11-27T14:07:54.046Z,28.97
2022-11-27T14:10:25.496Z,28.27
2022-11-27T14:13:01.666Z,28.53
2022-11-27T14:15:30.868Z,28.67
2022-11-27T14:18:09.440Z,33.97
2022-11-27T14:20:47.468Z,32.87
2022-11-27T14:23:14.521Z,31.17
2022-11-27T14:25:41.691Z,34.30
2022-11-27T14:28:16.603Z,33.17
2022-11-27T14:30:50.385Z,30.70
2022-11-27T14:33:26.082Z,30.33
2022-11-27T14:35:54.412Z,29.83
2022-11-27T14:38:22.573Z,28.43
2022-11-27T14:40:53.234Z,30.37
2022-11-27T14:43:26.248Z,32.77
2022-11-27T14:45:57.378Z,31.87
2022-11-27T14:48:24.196Z,30.40
2022-11-27T14:50:53.989Z,28.90
2022-11-27T14:53:23.871Z,30.07
2022-11-27T14:55:54.966Z,30.37
2022-11-27T14:58:27.482Z,31.23
2022-11-27T15:01:06.704Z,30.60
2022-11-27T15:03:34.418Z,29.50
2022-11-27T15:06:05.457Z,26.73
2022-11-27T15:08:36.011Z,28.27
2022-11-27T15:11:05.283Z,28.40
2022-11-27T15:13:35.860Z,27.37
2022-11-27T15:16:24.915Z,29.77
2022-11-27T15:19:05.134Z,30.20
2022-11-27T15:21:38.083Z,28.80
2022-11-27T15:24:05.030Z,70.13
2022-11-27T15:26:44.933Z,54.07
2022-11-27T15:29:30.915Z,33.90
2022-11-27T15:31:58.040Z,83.63
2022-11-27T15:34:24.844Z,35.57
2022-11-27T15:36:58.748Z,51.63
2022-11-27T15:39:51.853Z,76.90
2022-11-27T15:42:20.533Z,37.80
2022-11-27T15:44:49.187Z,32.37
2022-11-27T15:47:29.024Z,34.50
2022-11-27T15:49:56.019Z,42.37
2022-11-27T15:52:24.069Z,45.83
2022-11-27T15:54:51.415Z,36.07
2022-11-27T15:57:19.016Z,37.87
2022-11-27T15:59:45.947Z,47.57
2022-11-27T16:02:17.755Z,30.37
2022-11-27T16:04:45.516Z,31.43
2022-11-27T16:07:12.764Z,29.00
2022-11-27T16:09:40.101Z,30.27
2022-11-27T16:12:07.218Z,28.80
2022-11-27T16:14:33.981Z,27.87
2022-11-27T16:17:01.463Z,28.17
2022-11-27T16:19:28.492Z,27.73
2022-11-27T16:21:56.777Z,26.90
2022-11-27T16:24:23.640Z,30.07
2022-11-27T16:26:50.843Z,33.13
2022-11-27T16:29:17.767Z,32.43
2022-11-27T16:31:44.900Z,31.90
2022-11-27T16:34:14.550Z,34.70
2022-11-27T16:36:43.801Z,39.03
2022-11-27T16:39:12.137Z,38.93
2022-11-27T16:41:40.174Z,44.27
2022-11-27T16:44:15.028Z,41.87
2022-11-27T16:46:44.551Z,41.33
2022-11-27T16:49:12.324Z,45.20
2022-11-27T16:51:41.272Z,49.57
2022-11-27T16:54:12.530Z,46.07
2022-11-27T16:56:42.018Z,62.60
2022-11-27T16:59:10.769Z,75.23
2022-11-27T17:01:41.031Z,63.20
2022-11-27T17:04:10.071Z,66.03
2022-11-27T17:06:38.544Z,77.17
2022-11-27T17:09:07.697Z,50.47
2022-11-27T17:11:36.587Z,41.33
2022-11-27T17:14:07.793Z,38.80
2022-11-27T17:16:37.826Z,39.83
2022-11-27T17:19:04.883Z,40.80
2022-11-27T17:21:35.211Z,38.83
2022-11-27T17:24:14.684Z,38.37
2022-11-27T17:26:45.462Z,41.80
2022-11-27T17:29:15.256Z,43.87
2022-11-27T17:31:42.892Z,39.90
2022-11-27T17:34:13.310Z,42.20
2022-11-27T17:36:44.067Z,42.43
2022-11-27T17:39:13.343Z,42.97
2022-11-27T17:41:42.198Z,43.90
2022-11-27T17:44:08.963Z,42.60
2022-11-27T17:46:36.980Z,43.50
2022-11-27T17:49:07.426Z,42.90
2022-11-27T17:51:35.959Z,50.83
2022-11-27T17:54:05.288Z,44.80
2022-11-27T17:56:34.032Z,46.83
2022-11-27T17:59:01.628Z,45.47
2022-11-27T18:01:30.430Z,60.20
2022-11-27T18:04:03.840Z,53.00
2022-11-27T18:06:32.354Z,60.03
2022-11-27T18:09:00.103Z,47.13
2022-11-27T18:11:30.905Z,45.93
2022-11-27T18:14:01.366Z,50.53
2022-11-27T18:16:33.648Z,48.87
2022-11-27T18:19:04.706Z,54.97
2022-11-27T18:21:32.423Z,57.43
2022-11-27T18:24:23.862Z,88.97
2022-11-27T18:29:36.027Z,58.00
2022-11-27T18:32:03.303Z,58.30
2022-11-27T18:34:30.172Z,66.97
2022-11-27T18:36:59.510Z,73.63
2022-11-27T18:39:27.561Z,63.37
2022-11-27T18:41:54.941Z,54.83
2022-11-27T18:44:22.828Z,56.13
2022-11-27T18:46:50.653Z,56.87
2022-11-27T18:49:18.158Z,54.77
2022-11-27T18:51:46.486Z,55.53
2022-11-27T18:54:13.444Z,75.07
2022-11-27T18:56:40.620Z,82.17
2022-11-27T18:59:09.247Z,56.53
2022-11-27T19:01:42.319Z,55.77
2022-11-27T19:04:11.119Z,60.00
2022-11-27T19:06:39.326Z,60.70
2022-11-27T19:09:06.719Z,57.73
2022-11-27T19:11:35.143Z,62.53
2022-11-27T19:14:03.824Z,59.80
2022-11-27T19:16:36.180Z,55.90
2022-11-27T19:19:05.102Z,59.73
2022-11-27T19:21:33.663Z,51.60
2022-11-27T19:24:02.484Z,48.97
2022-11-27T19:26:35.232Z,55.53
2022-11-27T19:29:07.774Z,52.73
2022-11-27T19:31:37.946Z,58.73
2022-11-27T19:34:06.398Z,51.67
2022-11-27T19:36:35.550Z,52.47
2022-11-27T19:39:09.074Z,54.87
2022-11-27T19:41:36.165Z,53.27
2022-11-27T19:44:04.829Z,54.93
2022-11-27T19:46:35.695Z,56.33
2022-11-27T19:49:09.031Z,59.83
2022-11-27T19:51:37.954Z,56.47
2022-11-27T19:54:09.860Z,55.90
2022-11-27T19:56:40.242Z,58.30
2022-11-27T19:59:07.696Z,62.60
2022-11-27T20:01:35.978Z,58.77
2022-11-27T20:04:04.017Z,55.67
2022-11-27T20:06:31.600Z,56.07
2022-11-27T20:09:01.337Z,55.50
2022-11-27T20:11:34.224Z,60.70
2022-11-27T20:14:04.848Z,60.30
2022-11-27T20:16:34.235Z,54.50
2022-11-27T20:19:05.333Z,59.50
2022-11-27T20:21:34.749Z,69.33
2022-11-27T20:24:03.280Z,70.23
2022-11-27T20:26:30.593Z,60.80
2022-11-27T20:28:59.058Z,59.13
2022-11-27T20:31:32.291Z,56.17
2022-11-27T20:34:01.294Z,58.03
2022-11-27T20:36:30.524Z,62.80
2022-11-27T20:39:00.102Z,60.57
2022-11-27T20:41:29.581Z,67.63
2022-11-27T20:43:59.291Z,62.43
2022-11-27T20:46:27.442Z,60.37
2022-11-27T20:48:54.901Z,61.80
2022-11-27T20:51:30.805Z,67.93
2022-11-27T20:53:59.042Z,73.80
2022-11-27T20:56:26.491Z,63.10
2022-11-27T20:58:53.440Z,66.83
2022-11-27T21:01:23.550Z,66.17
2022-11-27T21:03:52.559Z,70.07
2022-11-27T21:06:23.431Z,69.33
2022-11-27T21:08:50.808Z,75.57
2022-11-27T21:11:29.939Z,76.87
2022-11-27T21:14:04.766Z,78.37
2022-11-27T21:16:35.383Z,77.43
2022-11-27T21:19:11.204Z,82.10
2022-11-27T21:21:38.959Z,89.70
2022-11-27T21:24:06.573Z,93.50
2022-11-27T21:26:33.686Z,90.93
2022-11-27T21:29:01.352Z,92.73
2022-11-27T21:31:35.926Z,84.00
2022-11-27T21:34:11.868Z,81.83
2022-11-27T21:36:39.393Z,82.53
2022-11-27T21:39:08.506Z,85.73
2022-11-27T21:41:36.559Z,87.13
2022-11-27T21:44:05.620Z,80.40
2022-11-27T21:46:33.865Z,83.10
2022-11-27T21:49:04.528Z,78.80
2022-11-27T21:51:31.643Z,87.20
2022-11-27T21:53:59.653Z,81.30
2022-11-27T21:56:28.876Z,79.33
2022-11-27T21:58:56.075Z,85.40
2022-11-27T22:01:25.344Z,77.57
2022-11-27T22:03:57.394Z,74.37
2022-11-27T22:06:27.814Z,75.37
2022-11-27T22:08:56.400Z,74.93
2022-11-27T22:11:30.269Z,72.27
2022-11-27T22:13:59.351Z,73.97
2022-11-27T22:16:31.944Z,72.90
2022-11-27T22:18:59.957Z,75.63
2022-11-27T22:21:29.293Z,77.90
2022-11-27T22:23:57.009Z,79.33
2022-11-27T22:26:25.392Z,74.10
2022-11-27T22:28:52.444Z,77.43
2022-11-27T22:31:23.209Z,78.23
2022-11-27T22:33:50.503Z,68.40
2022-11-27T22:36:32.510Z,70.33
2022-11-27T22:39:05.694Z,66.67
2022-11-27T22:41:36.536Z,65.50
2022-11-27T22:44:08.496Z,69.47
2022-11-27T22:46:36.692Z,71.07
2022-11-27T22:49:05.611Z,68.97
2022-11-27T22:51:35.002Z,65.27
2022-11-27T22:54:03.550Z,70.30
2022-11-27T22:56:33.538Z,63.00
2022-11-27T22:59:30.397Z,63.90
2022-11-27T23:01:48.722Z,64.17
2022-11-27T23:04:16.772Z,65.23
2022-11-27T23:06:48.053Z,66.33
2022-11-27T23:09:16.065Z,66.47
2022-11-27T23:11:43.155Z,67.73
2022-11-27T23:14:09.941Z,67.63
2022-11-27T23:16:37.196Z,69.57
2022-11-27T23:19:04.081Z,65.20
2022-11-27T23:21:32.769Z,72.17
2022-11-27T23:23:59.494Z,66.20
2022-11-27T23:26:26.604Z,66.00
2022-11-27T23:28:53.839Z,76.23
2022-11-27T23:31:31.997Z,71.37
2022-11-27T23:34:03.759Z,75.77
2022-11-27T23:36:31.878Z,81.03
2022-11-27T23:39:04.312Z,85.93
2022-11-27T23:41:32.001Z,79.17
2022-11-27T23:43:59.335Z,71.77
2022-11-27T23:46:29.380Z,65.77
2022-11-27T23:48:58.074Z,71.83
2022-11-27T23:51:28.047Z,69.67
2022-11-27T23:53:55.016Z,68.30
2022-11-27T23:56:24.858Z,65.93
2022-11-27T23:58:53.308Z,69.87
